Time;durP1;ratioP1;P1;durP2;ratioP2;P2;SDS_P1;SDS_P2;PMS_P1;PMS_P2;Temp;Humidity;BMP_temperature;BMP_pressure;BME280_temperature;BME280_humidity;BME280_pressure;Samples;Min_cycle;Max_cycle;Signal;HPM_P1;HPM_P2
2021/12/06 00:01:12;;;;;;;241.17;39.20;;;;;;;-1.45;100.00;96662.94;5132820;27;20043;-61
2021/12/06 00:03:44;;;;;;;287.60;47.30;;;;;;;-1.39;100.00;96665.28;5132844;27;20070;-62
2021/12/06 00:06:13;;;;;;;325.83;45.30;;;;;;;-1.48;100.00;96670.78;5132421;27;20118;-62
2021/12/06 00:08:42;;;;;;;375.83;48.67;;;;;;;-1.41;100.00;96666.25;5132941;27;20092;-61
2021/12/06 00:11:10;;;;;;;204.50;36.43;;;;;;;-1.46;100.00;96673.31;5132958;27;20043;-61
2021/12/06 00:13:39;;;;;;;277.83;39.97;;;;;;;-1.37;100.00;96673.81;5113806;27;20058;-61
2021/12/06 00:16:12;;;;;;;376.53;47.40;;;;;;;-1.38;100.00;96677.25;5132756;27;20058;-61
2021/12/06 00:18:39;;;;;;;340.20;46.07;;;;;;;-1.35;100.00;96677.16;5132568;27;20118;-61
2021/12/06 00:21:07;;;;;;;270.73;40.53;;;;;;;-1.40;100.00;96679.06;5114264;27;20047;-61
2021/12/06 00:23:34;;;;;;;327.03;42.10;;;;;;;-1.37;100.00;96673.81;5132218;27;20051;-61
2021/12/06 00:26:05;;;;;;;297.83;39.80;;;;;;;-1.52;100.00;96677.75;5115129;27;20493;-62
2021/12/06 00:28:32;;;;;;;348.50;42.67;;;;;;;-1.45;100.00;96670.66;5115491;27;20062;-61
2021/12/06 00:31:00;;;;;;;332.83;44.70;;;;;;;-1.42;100.00;96673.13;5115267;27;20043;-60
2021/12/06 00:33:27;;;;;;;333.67;40.27;;;;;;;-1.70;100.00;96678.41;5132704;27;20396;-61
2021/12/06 00:35:56;;;;;;;388.73;48.10;;;;;;;-1.43;100.00;96675.75;5132768;27;20418;-62
2021/12/06 00:38:24;;;;;;;263.87;36.83;;;;;;;-1.55;100.00;96684.75;5132211;27;20035;-62
2021/12/06 00:40:51;;;;;;;256.93;35.83;;;;;;;-1.45;100.00;96680.97;5114276;27;20068;-62
2021/12/06 00:43:20;;;;;;;255.50;32.70;;;;;;;-1.53;100.00;96680.38;5132216;27;20066;-61
2021/12/06 00:45:48;;;;;;;248.40;33.50;;;;;;;-1.50;100.00;96682.03;5132080;27;20113;-62
2021/12/06 00:48:15;;;;;;;297.80;37.00;;;;;;;-1.57;100.00;96678.81;5132164;27;20112;-61
2021/12/06 00:50:45;;;;;;;298.53;37.47;;;;;;;-1.44;100.00;96680.06;5132137;27;20057;-62
2021/12/06 00:53:13;;;;;;;207.07;34.87;;;;;;;-1.48;100.00;96689.63;5130710;27;20063;-62
2021/12/06 00:55:40;;;;;;;291.23;37.47;;;;;;;-1.33;100.00;96688.25;5113762;27;20032;-61
2021/12/06 00:58:08;;;;;;;279.43;41.37;;;;;;;-1.29;100.00;96692.41;5130455;27;20092;-61
2021/12/06 01:00:39;;;;;;;303.43;41.07;;;;;;;-1.35;100.00;96702.09;5113487;27;20047;-61
2021/12/06 01:03:10;;;;;;;212.57;33.83;;;;;;;-1.44;100.00;96690.38;5113417;27;20539;-61
2021/12/06 01:05:38;;;;;;;271.70;40.77;;;;;;;-1.30;100.00;96698.47;5113045;27;20051;-61
2021/12/06 01:08:06;;;;;;;266.97;37.13;;;;;;;-1.41;100.00;96698.00;5131761;27;20045;-60
2021/12/06 01:10:34;;;;;;;322.93;40.97;;;;;;;-1.36;100.00;96698.66;5096231;27;20051;-61
2021/12/06 01:13:03;;;;;;;303.47;40.43;;;;;;;-1.41;100.00;96697.16;5113446;27;20089;-62
2021/12/06 01:15:31;;;;;;;295.40;40.87;;;;;;;-1.34;100.00;96707.19;5113305;27;20039;-62
2021/12/06 01:18:25;;;;;;;284.30;41.47;;;;;;;-1.19;100.00;96693.75;5131305;27;20055;-61
2021/12/06 01:21:01;;;;;;;262.73;40.20;;;;;;;-1.18;100.00;96685.13;5113066;27;20078;-62
2021/12/06 01:23:40;;;;;;;180.43;33.27;;;;;;;-1.37;100.00;96678.97;5131522;27;20039;-62
2021/12/06 01:26:26;;;;;;;183.97;33.07;;;;;;;-1.29;100.00;96663.22;5114404;27;20039;-61
2021/12/06 01:29:14;;;;;;;227.40;35.40;;;;;;;-1.27;100.00;96658.84;5114266;27;20032;-61
2021/12/06 01:31:49;;;;;;;134.90;31.63;;;;;;;-1.25;100.00;96665.63;5111783;27;20038;-61
2021/12/06 01:39:56;;;;;;;211.00;32.73;;;;;;;-1.42;100.00;96655.09;5113042;27;20084;-62
2021/12/06 01:42:25;;;;;;;254.60;37.57;;;;;;;-141.66;100.00;58987.19;5113033;27;20035;-61
2021/12/06 01:44:54;;;;;;;173.23;33.30;;;;;;;-141.66;100.00;58987.19;5112552;27;20428;-61
2021/12/06 01:47:27;;;;;;;216.37;36.23;;;;;;;-141.66;100.00;58987.19;5112825;27;20063;-61
2021/12/06 01:49:57;;;;;;;172.33;32.43;;;;;;;-141.66;100.00;58987.19;5131002;27;20039;-62
2021/12/06 01:52:35;;;;;;;215.93;34.23;;;;;;;-141.66;100.00;58987.19;5131027;27;20054;-61
2021/12/06 01:55:03;;;;;;;381.33;45.60;;;;;;;-141.66;100.00;58987.19;5130848;27;20043;-61
2021/12/06 01:57:33;;;;;;;130.60;30.03;;;;;;;-141.66;100.00;58987.19;5112280;27;20053;-61
2021/12/06 02:00:01;;;;;;;316.77;46.87;;;;;;;-141.66;100.00;58987.19;5095658;27;20099;-61
2021/12/06 02:02:30;;;;;;;234.23;35.17;;;;;;;-141.66;100.00;58987.19;5112140;27;20050;-61
2021/12/06 02:05:04;;;;;;;250.33;36.77;;;;;;;-141.66;100.00;58987.19;5112125;27;20414;-61
2021/12/06 02:07:32;;;;;;;242.23;36.38;;;;;;;-141.66;100.00;58987.19;5112460;28;20051;-61
2021/12/06 02:10:00;;;;;;;267.53;38.70;;;;;;;-141.66;100.00;58987.19;5130599;27;20039;-61
2021/12/06 02:12:31;;;;;;;137.33;29.33;;;;;;;-141.66;100.00;58987.19;5112782;28;20055;-61
2021/12/06 02:15:05;;;;;;;190.93;34.83;;;;;;;-141.66;100.00;58987.19;5131428;27;20043;-61
2021/12/06 02:17:37;;;;;;;126.73;27.73;;;;;;;-141.66;100.00;58987.19;5112077;28;20050;-61
2021/12/06 02:20:10;;;;;;;280.87;36.70;;;;;;;-141.66;100.00;58987.19;5129415;28;20031;-63
2021/12/06 02:22:40;;;;;;;210.37;29.67;;;;;;;-141.66;100.00;58987.19;5112068;28;20043;-61
2021/12/06 02:25:14;;;;;;;215.50;32.53;;;;;;;-141.66;100.00;58987.19;5129312;28;20039;-61
2021/12/06 02:27:41;;;;;;;172.57;32.00;;;;;;;-141.66;100.00;58987.19;5112520;28;20042;-61
2021/12/06 02:30:10;;;;;;;267.63;37.77;;;;;;;-141.66;100.00;58987.19;5111861;28;20039;-62
2021/12/06 02:32:37;;;;;;;207.00;33.17;;;;;;;-141.66;100.00;58987.19;5130781;28;20508;-62
2021/12/06 02:35:11;;;;;;;167.43;32.83;;;;;;;-141.66;100.00;58987.19;5130516;28;20034;-61
2021/12/06 02:37:40;;;;;;;364.55;45.17;;;;;;;-141.66;100.00;58987.19;5130649;28;20498;-61
2021/12/06 02:40:10;;;;;;;165.30;31.50;;;;;;;-141.66;100.00;58987.19;5111108;28;20484;-60
2021/12/06 02:42:39;;;;;;;217.47;34.17;;;;;;;-141.66;100.00;58987.19;5130461;28;20043;-61
2021/12/06 02:45:09;;;;;;;237.27;36.97;;;;;;;-141.66;100.00;58987.19;5111897;28;20059;-61
2021/12/06 02:47:36;;;;;;;238.70;36.33;;;;;;;-141.66;100.00;58987.19;5111997;28;20521;-60
2021/12/06 02:50:08;;;;;;;272.63;34.83;;;;;;;-141.66;100.00;58987.19;5112109;28;20055;-60
2021/12/06 02:52:35;;;;;;;250.60;35.10;;;;;;;-141.66;100.00;58987.19;5111993;28;20278;-60
2021/12/06 02:55:20;;;;;;;352.63;43.50;;;;;;;-141.66;100.00;58987.19;5111922;28;20051;-60
2021/12/06 02:57:54;;;;;;;254.30;36.43;;;;;;;-141.66;100.00;58987.19;5111836;28;20385;-60
2021/12/06 03:00:24;;;;;;;249.47;35.13;;;;;;;-141.66;100.00;58987.19;5111848;28;20043;-61
2021/12/06 03:02:51;;;;;;;185.67;29.23;;;;;;;-141.66;100.00;58987.19;5111884;28;20028;-61
2021/12/06 03:05:18;;;;;;;158.07;21.83;;;;;;;-141.66;100.00;58987.19;5112137;28;20126;-61
2021/12/06 03:07:50;;;;;;;285.07;32.33;;;;;;;-141.66;100.00;58987.19;5129098;28;20055;-60
2021/12/06 03:10:19;;;;;;;230.70;32.70;;;;;;;-141.66;100.00;58987.19;5111496;28;20039;-60
2021/12/06 03:12:46;;;;;;;188.73;29.20;;;;;;;-141.66;100.00;58987.19;5129770;28;20526;-60
2021/12/06 03:15:16;;;;;;;390.37;47.17;;;;;;;-141.66;100.00;58987.19;5112039;27;20518;-60
2021/12/06 03:17:45;;;;;;;193.13;27.80;;;;;;;-141.66;100.00;58987.19;5114409;27;20074;-61
2021/12/06 03:20:14;;;;;;;199.03;32.00;;;;;;;-141.66;100.00;58987.19;5115463;27;20465;-60
2021/12/06 03:22:44;;;;;;;295.13;34.87;;;;;;;-141.66;100.00;58987.19;5133664;27;20055;-61
2021/12/06 03:25:13;;;;;;;301.30;39.67;;;;;;;-141.66;100.00;58987.19;5115701;27;20591;-60
2021/12/06 03:27:42;;;;;;;355.83;47.10;;;;;;;-141.66;100.00;58987.19;5133699;27;20376;-61
2021/12/06 03:30:11;;;;;;;261.30;31.10;;;;;;;-141.66;100.00;58987.19;5133212;27;20050;-61
2021/12/06 03:32:38;;;;;;;262.70;31.70;;;;;;;-141.66;100.00;58987.19;5133689;27;20080;-61
2021/12/06 03:35:09;;;;;;;246.17;32.00;;;;;;;-141.66;100.00;58987.19;5133127;27;20505;-62
2021/12/06 03:37:37;;;;;;;432.57;48.83;;;;;;;-141.66;100.00;58987.19;5098133;27;20135;-62
2021/12/06 03:40:05;;;;;;;356.37;41.00;;;;;;;-141.66;100.00;58987.19;5114785;27;20062;-62
2021/12/06 03:42:32;;;;;;;299.07;37.43;;;;;;;-141.66;100.00;58987.19;5115233;27;20043;-61
2021/12/06 03:45:01;;;;;;;360.30;41.60;;;;;;;-141.66;100.00;58987.19;5133259;27;20460;-62
2021/12/06 03:47:31;;;;;;;457.10;50.37;;;;;;;-141.66;100.00;58987.19;5114844;27;20067;-62
2021/12/06 03:50:01;;;;;;;249.13;34.97;;;;;;;-141.66;100.00;58987.19;5114645;27;20372;-62
2021/12/06 03:52:30;;;;;;;325.53;39.37;;;;;;;-141.66;100.00;58987.19;5115109;27;20050;-61
2021/12/06 03:54:59;;;;;;;281.50;36.80;;;;;;;-141.66;100.00;58987.19;5115010;27;20045;-61
2021/12/06 03:57:27;;;;;;;269.60;37.67;;;;;;;-141.66;100.00;58987.19;5114800;27;20043;-60
2021/12/06 03:59:55;;;;;;;305.97;42.73;;;;;;;-141.66;100.00;58987.19;5114681;27;20039;-60
2021/12/06 04:02:27;;;;;;;158.53;31.20;;;;;;;-141.66;100.00;58987.19;5113856;27;20066;-61
2021/12/06 04:04:55;;;;;;;227.53;32.23;;;;;;;-141.66;100.00;58987.19;5114571;27;20047;-61
2021/12/06 04:07:24;;;;;;;147.57;29.17;;;;;;;-141.66;100.00;58987.19;5115061;27;20105;-62
2021/12/06 04:09:51;;;;;;;279.13;37.57;;;;;;;-141.66;100.00;58987.19;5098588;27;20122;-61
2021/12/06 04:12:19;;;;;;;244.37;37.60;;;;;;;-141.66;100.00;58987.19;5114522;27;20043;-61
2021/12/06 04:14:48;;;;;;;479.40;54.80;;;;;;;-141.66;100.00;58987.19;5114052;27;20042;-62
2021/12/06 04:17:19;;;;;;;451.30;53.57;;;;;;;-141.66;100.00;58987.19;5132806;27;20050;-62
2021/12/06 04:19:49;;;;;;;236.97;34.80;;;;;;;-141.66;100.00;58987.19;5115417;27;20047;-62
2021/12/06 04:22:16;;;;;;;438.43;49.63;;;;;;;-141.66;100.00;58987.19;5114025;27;20043;-61
2021/12/06 04:24:45;;;;;;;372.47;42.63;;;;;;;-141.66;100.00;58987.19;5114016;27;20399;-61
2021/12/06 04:27:15;;;;;;;183.67;32.10;;;;;;;-141.66;100.00;58987.19;5113953;27;20035;-62
2021/12/06 04:29:47;;;;;;;121.53;28.13;;;;;;;-141.66;100.00;58987.19;5113173;27;20043;-61
2021/12/06 04:32:17;;;;;;;213.00;30.60;;;;;;;-141.66;100.00;58987.19;5114023;27;20496;-61
2021/12/06 04:34:44;;;;;;;273.33;37.03;;;;;;;-141.66;100.00;58987.19;5113913;27;20043;-62
2021/12/06 04:37:13;;;;;;;152.83;29.27;;;;;;;-141.66;100.00;58987.19;5131847;27;20043;-60
2021/12/06 04:39:43;;;;;;;370.20;45.30;;;;;;;-141.66;100.00;58987.19;5113992;27;20118;-61
2021/12/06 04:42:11;;;;;;;405.87;42.63;;;;;;;-141.66;100.00;58987.19;5113708;27;20510;-62
2021/12/06 04:44:38;;;;;;;409.20;47.10;;;;;;;-141.66;100.00;58987.19;5132415;27;20531;-61
2021/12/06 04:47:08;;;;;;;193.13;30.13;;;;;;;-141.66;100.00;58987.19;5097029;27;20039;-62
2021/12/06 04:49:36;;;;;;;224.73;33.90;;;;;;;-141.66;100.00;58987.19;5113941;27;20096;-62
2021/12/06 04:52:07;;;;;;;221.10;33.43;;;;;;;-141.66;100.00;58987.19;5113649;27;20497;-60
2021/12/06 04:54:42;;;;;;;189.30;29.37;;;;;;;-141.66;100.00;58987.19;5113502;27;20035;-61
2021/12/06 04:57:12;;;;;;;247.63;31.53;;;;;;;-141.66;100.00;58987.19;5132222;27;20035;-62
2021/12/06 04:59:43;;;;;;;108.87;25.93;;;;;;;-141.66;100.00;58987.19;5114053;27;20039;-63
2021/12/06 05:02:14;;;;;;;104.73;25.47;;;;;;;-141.66;100.00;58987.19;5114110;27;20045;-62
2021/12/06 05:04:47;;;;;;;137.87;26.13;;;;;;;-141.66;100.00;58987.19;5113839;27;20452;-62
2021/12/06 05:07:18;;;;;;;75.18;22.67;;;;;;;-141.66;100.00;58987.19;5113299;27;20043;-61
2021/12/06 05:09:47;;;;;;;169.73;27.67;;;;;;;-141.66;100.00;58987.19;5131562;27;20039;-62
2021/12/06 05:12:20;;;;;;;95.67;23.40;;;;;;;-141.66;100.00;58987.19;5106913;28;20056;-62
2021/12/06 05:14:48;;;;;;;83.53;22.33;;;;;;;-141.66;100.00;58987.19;5089581;28;20119;-63
2021/12/06 05:17:16;;;;;;;95.87;23.17;;;;;;;-141.66;100.00;58987.19;5096741;28;20135;-63
2021/12/06 05:19:43;;;;;;;94.03;25.40;;;;;;;-141.66;100.00;58987.19;5101642;28;20056;-61
2021/12/06 05:22:11;;;;;;;80.80;22.50;;;;;;;-141.66;100.00;58987.19;5104903;28;20051;-62
2021/12/06 05:24:39;;;;;;;70.57;22.07;;;;;;;-141.66;100.00;58987.19;5103648;28;20044;-62
2021/12/06 05:27:08;;;;;;;93.33;25.40;;;;;;;-141.66;100.00;58987.19;5094145;28;20150;-61
2021/12/06 05:29:38;;;;;;;87.33;21.87;;;;;;;-141.66;100.00;58987.19;5090792;28;20039;-62
2021/12/06 05:32:06;;;;;;;183.60;30.53;;;;;;;-141.66;100.00;58987.19;5101375;28;20054;-63
2021/12/06 05:34:38;;;;;;;132.60;24.37;;;;;;;-141.66;100.00;58987.19;5080552;28;20050;-63
2021/12/06 05:37:06;;;;;;;103.27;21.80;;;;;;;-141.66;100.00;58987.19;5092748;28;20036;-63
2021/12/06 05:39:34;;;;;;;84.27;20.03;;;;;;;-141.66;100.00;58987.19;5096477;28;20039;-62
2021/12/06 05:42:04;;;;;;;143.07;24.80;;;;;;;-141.66;100.00;58987.19;5101611;28;20515;-62
2021/12/06 05:44:33;;;;;;;102.80;20.33;;;;;;;-141.66;100.00;58987.19;5102322;28;20051;-62
2021/12/06 05:47:01;;;;;;;57.10;17.63;;;;;;;-141.66;100.00;58987.19;5110456;28;20047;-62
2021/12/06 05:49:28;;;;;;;65.00;15.97;;;;;;;-141.66;100.00;58987.19;5105882;28;20048;-62
2021/12/06 05:51:56;;;;;;;76.87;18.33;;;;;;;-141.66;100.00;58987.19;5088698;28;20040;-61
2021/12/06 05:54:25;;;;;;;66.20;21.57;;;;;;;-141.66;100.00;58987.19;5092430;28;21431;-62
2021/12/06 05:56:54;;;;;;;63.00;17.80;;;;;;;-141.66;100.00;58987.19;5090928;28;20044;-62
2021/12/06 05:59:41;;;;;;;56.67;16.87;;;;;;;-141.66;100.00;58987.19;5099108;28;20040;-62
2021/12/06 06:02:10;;;;;;;59.10;17.13;;;;;;;-141.66;100.00;58987.19;5101727;28;20126;-62
2021/12/06 06:04:37;;;;;;;53.40;16.57;;;;;;;-141.66;100.00;58987.19;5104658;28;20039;-61
2021/12/06 06:07:05;;;;;;;52.10;16.37;;;;;;;-141.66;100.00;58987.19;5100105;28;20044;-62
2021/12/06 06:09:33;;;;;;;75.90;20.70;;;;;;;-141.66;100.00;58987.19;5097820;28;20052;-62
2021/12/06 06:12:02;;;;;;;73.13;18.93;;;;;;;-141.66;100.00;58987.19;5106964;28;20051;-62
2021/12/06 06:14:30;;;;;;;77.50;18.97;;;;;;;-141.66;100.00;58987.19;5130307;27;20047;-61
2021/12/06 06:17:07;;;;;;;115.97;20.67;;;;;;;-141.66;100.00;58987.19;5130620;27;20043;-61
2021/12/06 06:19:34;;;;;;;79.60;20.13;;;;;;;-141.66;100.00;58987.19;5129293;28;20072;-63
2021/12/06 06:22:02;;;;;;;94.57;20.13;;;;;;;-141.66;100.00;58987.19;5130407;28;20051;-62
2021/12/06 06:24:29;;;;;;;74.37;19.37;;;;;;;-141.66;100.00;58987.19;5129106;28;20417;-61
2021/12/06 06:26:56;;;;;;;78.17;22.17;;;;;;;-141.66;100.00;58987.19;5130438;28;20043;-61
2021/12/06 06:29:23;;;;;;;112.50;22.40;;;;;;;-141.66;100.00;58987.19;5129993;28;20126;-63
2021/12/06 06:31:51;;;;;;;74.00;22.97;;;;;;;-141.66;100.00;58987.19;5130330;28;20099;-62
2021/12/06 06:34:19;;;;;;;66.10;19.03;;;;;;;-141.66;100.00;58987.19;5130807;28;20541;-62
2021/12/06 06:36:46;;;;;;;66.50;18.77;;;;;;;-141.66;100.00;58987.19;5130379;28;20112;-62
2021/12/06 06:39:14;;;;;;;63.90;19.53;;;;;;;-141.66;100.00;58987.19;5130429;28;20047;-62
2021/12/06 06:41:41;;;;;;;81.07;19.20;;;;;;;-141.66;100.00;58987.19;5130128;28;20036;-62
2021/12/06 06:44:08;;;;;;;59.40;18.97;;;;;;;-141.66;100.00;58987.19;5131000;28;20477;-63
2021/12/06 06:46:35;;;;;;;98.77;22.67;;;;;;;-141.66;100.00;58987.19;5131770;28;20449;-62
2021/12/06 06:49:04;;;;;;;61.50;16.73;;;;;;;-141.66;100.00;58987.19;5132045;28;20118;-62
2021/12/06 06:51:32;;;;;;;81.53;17.63;;;;;;;-141.66;100.00;58987.19;5134440;27;20051;-63
2021/12/06 06:53:59;;;;;;;63.80;16.97;;;;;;;-141.66;100.00;58987.19;5134674;27;20043;-62
2021/12/06 06:56:29;;;;;;;55.83;16.63;;;;;;;-141.66;100.00;58987.19;5134534;27;20517;-62
2021/12/06 06:58:57;;;;;;;41.73;15.70;;;;;;;-141.66;100.00;58987.19;5134234;27;20066;-62
2021/12/06 07:01:24;;;;;;;43.93;14.83;;;;;;;-141.66;100.00;58987.19;5134436;27;20509;-61
2021/12/06 07:03:53;;;;;;;132.57;23.07;;;;;;;-141.66;100.00;58987.19;5135729;27;20104;-61
2021/12/06 07:06:21;;;;;;;53.40;15.00;;;;;;;-141.66;100.00;58987.19;5135142;27;20042;-61
2021/12/06 07:08:49;;;;;;;73.20;18.63;;;;;;;-141.66;100.00;58987.19;5134174;27;20376;-60
2021/12/06 07:11:16;;;;;;;49.80;17.57;;;;;;;-141.66;100.00;58987.19;5133788;27;20031;-61
2021/12/06 07:13:44;;;;;;;77.97;17.50;;;;;;;-141.66;100.00;58987.19;5133736;27;20047;-62
2021/12/06 07:16:11;;;;;;;52.43;12.97;;;;;;;-141.66;100.00;58987.19;5133776;27;20069;-62
2021/12/06 07:18:38;;;;;;;47.03;14.50;;;;;;;-141.66;100.00;58987.19;5115554;27;20468;-61
2021/12/06 07:21:06;;;;;;;55.77;16.33;;;;;;;-141.66;100.00;58987.19;5132541;27;20035;-72
2021/12/06 07:23:38;;;;;;;49.00;13.43;;;;;;;-141.66;100.00;58987.19;5133546;27;21271;-72
2021/12/06 07:26:06;;;;;;;48.03;14.23;;;;;;;-141.66;100.00;58987.19;5133472;27;20047;-73
2021/12/06 07:28:34;;;;;;;69.87;31.37;;;;;;;-141.66;100.00;58987.19;5132671;27;20154;-73
2021/12/06 07:31:04;;;;;;;64.37;20.77;;;;;;;-141.66;100.00;58987.19;5133235;27;20072;-73
2021/12/06 07:33:32;;;;;;;47.23;14.40;;;;;;;-141.66;100.00;58987.19;5133082;27;20437;-73
2021/12/06 07:36:00;;;;;;;84.00;17.70;;;;;;;-141.66;100.00;58987.19;5133218;27;20063;-74
2021/12/06 07:38:28;;;;;;;60.77;14.47;;;;;;;-141.66;100.00;58987.19;5114916;27;20130;-73
2021/12/06 07:40:56;;;;;;;96.53;18.47;;;;;;;-141.66;100.00;58987.19;5133087;27;20076;-73
2021/12/06 07:43:24;;;;;;;107.73;18.00;;;;;;;-141.66;100.00;58987.19;5114848;27;20134;-73
2021/12/06 07:45:51;;;;;;;89.30;17.67;;;;;;;-141.66;100.00;58987.19;5133281;27;20097;-73
2021/12/06 07:48:18;;;;;;;59.50;14.97;;;;;;;-141.66;100.00;58987.19;5132467;27;20500;-72
2021/12/06 07:50:48;;;;;;;105.50;17.20;;;;;;;-141.66;100.00;58987.19;5096804;27;20075;-72
2021/12/06 07:53:17;;;;;;;58.00;15.50;;;;;;;-141.66;100.00;58987.19;5110482;27;20104;-74
2021/12/06 07:55:44;;;;;;;47.70;14.17;;;;;;;-141.66;100.00;58987.19;5112865;27;20055;-75
2021/12/06 07:58:12;;;;;;;93.57;16.33;;;;;;;-141.66;100.00;58987.19;5132385;27;20150;-73
2021/12/06 08:00:46;;;;;;;50.63;14.17;;;;;;;-141.66;100.00;58987.19;5114614;27;20067;-73
2021/12/06 08:03:14;;;;;;;47.90;14.33;;;;;;;-141.66;100.00;58987.19;5130118;27;20080;-71
2021/12/06 08:05:45;;;;;;;70.07;17.20;;;;;;;-141.66;100.00;58987.19;5132397;27;20036;-72
2021/12/06 08:08:15;;;;;;;57.30;14.83;;;;;;;-141.66;100.00;58987.19;5131611;27;20046;-71
2021/12/06 08:10:45;;;;;;;193.97;22.17;;;;;;;-141.66;100.00;58987.19;5113288;27;20058;-71
2021/12/06 08:13:13;;;;;;;42.57;13.20;;;;;;;-141.66;100.00;58987.19;5132828;27;20047;-74
2021/12/06 08:15:43;;;;;;;88.80;16.20;;;;;;;-141.66;100.00;58987.19;5115666;27;20047;-73
2021/12/06 08:18:11;;;;;;;69.77;15.63;;;;;;;-141.66;100.00;58987.19;5133877;27;20063;-70
2021/12/06 08:21:33;;;;;;;55.00;15.23;;;;;;;-0.24;100.00;96672.78;5090181;27;20380;-72
2021/12/06 08:24:02;;;;;;;35.60;14.60;;;;;;;-0.09;100.00;96663.59;5090271;28;20037;-71
2021/12/06 08:26:32;;;;;;;40.37;13.17;;;;;;;-0.19;100.00;96667.44;5089874;28;20366;-71
2021/12/06 08:29:04;;;;;;;36.73;14.83;;;;;;;-0.03;100.00;96661.59;5084325;28;20045;-70
2021/12/06 08:31:32;;;;;;;67.63;14.87;;;;;;;0.02;100.00;96658.81;5082366;28;20052;-72
2021/12/06 08:33:59;;;;;;;37.03;13.83;;;;;;;-0.34;100.00;96660.31;5085549;28;20450;-71
2021/12/06 08:36:27;;;;;;;49.53;12.93;;;;;;;-0.26;100.00;96651.38;5086084;28;20137;-69
2021/12/06 08:38:56;;;;;;;39.97;14.10;;;;;;;-0.24;100.00;96648.75;5085765;28;20914;-75
2021/12/06 08:41:25;;;;;;;36.90;11.90;;;;;;;-0.02;100.00;96654.69;5082749;28;20040;-74
2021/12/06 08:43:55;;;;;;;31.77;13.03;;;;;;;0.10;100.00;96647.28;5084131;28;20040;-74
2021/12/06 08:46:25;;;;;;;34.67;13.23;;;;;;;0.00;100.00;96645.97;5086927;28;20117;-70
2021/12/06 08:48:54;;;;;;;41.23;15.33;;;;;;;-0.12;100.00;96643.06;5085559;28;20036;-70
2021/12/06 08:51:24;;;;;;;32.90;12.27;;;;;;;-0.12;100.00;96651.66;5085269;28;20519;-71
2021/12/06 08:53:52;;;;;;;77.97;17.10;;;;;;;0.02;100.00;96654.47;5085026;28;20036;-70
2021/12/06 08:56:22;;;;;;;53.33;14.63;;;;;;;0.10;100.00;96649.84;5085480;28;20040;-68
2021/12/06 08:58:51;;;;;;;79.83;16.47;;;;;;;0.18;100.00;96640.03;5085949;28;20503;-67
2021/12/06 09:01:21;;;;;;;86.53;19.03;;;;;;;-0.09;100.00;96654.09;5084624;28;20849;-69
2021/12/06 09:03:48;;;;;;;192.30;23.93;;;;;;;-0.13;100.00;96652.53;5086003;28;20123;-68
2021/12/06 09:06:16;;;;;;;103.67;19.23;;;;;;;0.05;100.00;96645.78;5082774;28;20143;-68
2021/12/06 09:08:44;;;;;;;165.93;25.50;;;;;;;0.05;100.00;96638.88;5085796;28;20036;-67
2021/12/06 09:11:11;;;;;;;91.60;17.67;;;;;;;0.07;100.00;96642.22;5085189;28;20536;-69
2021/12/06 09:13:41;;;;;;;170.40;22.50;;;;;;;0.10;100.00;96643.84;5085877;28;20496;-72
2021/12/06 09:16:11;;;;;;;70.73;16.50;;;;;;;-0.01;100.00;96646.03;5084345;28;20051;-66
2021/12/06 09:18:41;;;;;;;66.33;16.47;;;;;;;-0.00;100.00;96637.38;5084878;28;20530;-68
2021/12/06 09:21:13;;;;;;;67.93;18.37;;;;;;;-0.01;100.00;96638.28;5083903;28;20053;-70
2021/12/06 09:23:41;;;;;;;109.33;19.13;;;;;;;0.29;100.00;96644.72;5085322;28;20120;-67
2021/12/06 09:26:08;;;;;;;230.07;24.83;;;;;;;0.13;100.00;96641.94;5085455;28;20044;-68
2021/12/06 09:28:35;;;;;;;182.43;21.30;;;;;;;0.06;100.00;96644.88;5083451;28;20139;-70
2021/12/06 09:31:05;;;;;;;256.03;26.27;;;;;;;0.22;100.00;96639.00;5081111;28;20037;-69
2021/12/06 09:33:34;;;;;;;90.00;18.60;;;;;;;0.13;100.00;96636.78;5070980;28;20405;-67
2021/12/06 09:36:01;;;;;;;47.10;13.53;;;;;;;0.04;100.00;96642.34;5071831;28;20045;-70
2021/12/06 09:38:35;;;;;;;67.17;15.53;;;;;;;-0.07;100.00;96638.53;5072596;28;20037;-71
2021/12/06 09:41:03;;;;;;;;;;;;;;;0.18;100.00;96642.63;5070757;28;20068;-68
2021/12/06 09:43:30;;;;;;;71.33;16.57;;;;;;;0.21;100.00;96633.88;5069968;28;19935;-69
2021/12/06 09:45:57;;;;;;;180.67;21.80;;;;;;;0.13;100.00;96639.38;5070250;28;20110;-68
2021/12/06 09:48:26;;;;;;;99.17;17.97;;;;;;;0.17;100.00;96635.78;5069820;28;20150;-67
2021/12/06 09:50:57;;;;;;;261.47;26.73;;;;;;;0.25;100.00;96625.94;5069461;28;20140;-69
2021/12/06 09:53:32;;;;;;;183.20;23.57;;;;;;;0.14;100.00;96628.16;5066886;28;20040;-67
2021/12/06 09:56:05;;;;;;;133.07;18.63;;;;;;;0.18;100.00;96619.38;5070278;28;20071;-67
2021/12/06 09:58:32;;;;;;;;;;;;;;;0.04;100.00;96611.38;5070448;28;20053;-67
2021/12/06 10:01:02;;;;;;;140.20;18.13;;;;;;;0.18;100.00;96606.47;5068496;28;19967;-67
2021/12/06 10:03:33;;;;;;;385.77;34.20;;;;;;;0.18;100.00;96590.97;5051944;28;20139;-67
2021/12/06 10:06:04;;;;;;;130.53;17.93;;;;;;;0.22;100.00;96582.16;5070146;28;20036;-68
2021/12/06 10:08:32;;;;;;;263.70;26.77;;;;;;;0.17;100.00;96576.38;5069349;28;20090;-68
2021/12/06 10:11:00;;;;;;;172.57;19.70;;;;;;;0.09;100.00;96551.78;5068912;28;20035;-67
2021/12/06 10:13:27;;;;;;;157.07;19.43;;;;;;;0.06;100.00;96547.59;5066758;28;20044;-69
2021/12/06 10:15:54;;;;;;;193.73;22.57;;;;;;;-0.01;100.00;96548.78;5068390;28;20094;-67
2021/12/06 10:18:21;;;;;;;143.10;22.57;;;;;;;-0.14;100.00;96544.22;5068796;28;20090;-68
2021/12/06 10:20:50;;;;;;;200.10;26.30;;;;;;;-0.02;100.00;96541.91;5068821;28;20075;-69
2021/12/06 10:23:18;;;;;;;192.77;25.10;;;;;;;-0.16;100.00;96541.69;5068551;28;20119;-61
2021/12/06 10:25:49;;;;;;;119.53;20.10;;;;;;;-0.15;100.00;96558.84;5069947;28;20126;-62
2021/12/06 10:28:17;;;;;;;127.07;22.40;;;;;;;-0.15;100.00;96566.59;5068605;28;20075;-68
2021/12/06 10:30:48;;;;;;;365.03;37.90;;;;;;;-0.21;100.00;96574.59;5071031;28;20140;-70
2021/12/06 10:33:18;;;;;;;250.17;27.80;;;;;;;-0.19;100.00;96577.09;5071280;28;20485;-69
2021/12/06 10:35:48;;;;;;;174.13;26.13;;;;;;;-0.19;100.00;96583.13;5069747;28;20040;-70
2021/12/06 10:38:22;;;;;;;197.83;28.23;;;;;;;-0.22;100.00;96572.91;5067341;28;20055;-69
2021/12/06 10:40:50;;;;;;;119.90;27.30;;;;;;;-0.24;100.00;96574.72;5069148;28;20045;-69
2021/12/06 10:43:17;;;;;;;356.13;34.77;;;;;;;-0.28;100.00;96572.34;5067093;28;20037;-70
2021/12/06 10:45:48;;;;;;;252.90;28.67;;;;;;;-0.27;100.00;96569.69;5070012;28;20056;-69
2021/12/06 10:48:18;;;;;;;209.43;25.97;;;;;;;-0.32;100.00;96576.78;5074229;28;20106;-68
2021/12/06 10:50:50;;;;;;;95.83;21.37;;;;;;;-0.21;100.00;96597.81;5072347;28;20094;-72
2021/12/06 10:53:21;;;;;;;178.67;22.37;;;;;;;-0.29;100.00;96592.13;5071745;28;20070;-69
2021/12/06 10:55:51;;;;;;;213.53;25.20;;;;;;;-0.20;100.00;96602.09;5072986;28;20566;-68
2021/12/06 10:58:24;;;;;;;103.28;20.00;;;;;;;-0.20;100.00;96596.94;5071123;28;20143;-71
2021/12/06 11:00:54;;;;;;;95.40;18.63;;;;;;;-0.13;100.00;96608.66;5072322;28;20504;-71
2021/12/06 11:03:33;;;;;;;166.47;20.77;;;;;;;-0.18;100.00;96607.16;5070610;28;20052;-69
2021/12/06 11:06:03;;;;;;;101.30;15.90;;;;;;;0.02;100.00;96610.59;5072524;28;20044;-68
2021/12/06 11:08:36;;;;;;;109.13;18.07;;;;;;;-0.05;100.00;96611.78;5072453;28;20048;-72
2021/12/06 11:11:08;;;;;;;75.87;16.27;;;;;;;-0.10;100.00;96600.78;5071259;28;20047;-70
2021/12/06 11:13:37;;;;;;;110.90;19.03;;;;;;;0.05;100.00;96602.72;5070824;28;20044;-71